createdAt,value
2022-11-29T00:01:26.501Z,18.25
2022-11-29T00:03:53.222Z,17.83
2022-11-29T00:06:20.921Z,17.35
2022-11-29T00:08:47.687Z,19.20
2022-11-29T00:11:35.364Z,16.73
2022-11-29T00:14:01.788Z,19.42
2022-11-29T00:16:28.729Z,17.23
2022-11-29T00:18:55.163Z,19.25
2022-11-29T00:21:21.553Z,18.33
2022-11-29T00:23:47.932Z,17.40
2022-11-29T00:26:14.382Z,18.33
2022-11-29T00:28:40.796Z,17.52
2022-11-29T00:31:15.223Z,19.67
2022-11-29T00:33:41.655Z,17.83
2022-11-29T00:36:08.122Z,18.90
2022-11-29T00:38:34.504Z,18.92
2022-11-29T00:41:00.953Z,17.92
2022-11-29T00:43:27.453Z,16.60
2022-11-29T00:45:53.971Z,17.25
2022-11-29T00:48:20.369Z,18.00
2022-11-29T00:50:46.832Z,18.63
2022-11-29T00:53:13.227Z,21.25
2022-11-29T00:55:39.664Z,18.73
2022-11-29T00:58:06.315Z,16.30
2022-11-29T01:00:32.836Z,19.65
2022-11-29T01:02:59.279Z,19.20
2022-11-29T01:05:25.672Z,20.52
2022-11-29T01:07:52.217Z,17.50
2022-11-29T01:10:18.803Z,20.48
2022-11-29T01:12:45.374Z,18.65
2022-11-29T01:15:11.857Z,18.63
2022-11-29T01:17:38.689Z,21.70
2022-11-29T01:20:06.084Z,17.70
2022-11-29T01:22:33.726Z,15.88
2022-11-29T01:25:00.164Z,20.30
2022-11-29T01:27:26.575Z,17.25
2022-11-29T01:29:52.989Z,19.58
2022-11-29T01:32:19.424Z,19.42
2022-11-29T01:34:46.243Z,18.80
2022-11-29T01:37:12.844Z,17.88
2022-11-29T01:39:39.375Z,16.95
2022-11-29T01:42:05.807Z,19.77
2022-11-29T01:44:32.167Z,17.73
2022-11-29T01:46:58.561Z,16.40
2022-11-29T01:49:24.940Z,17.40
2022-11-29T01:52:02.739Z,19.70
2022-11-29T01:54:29.867Z,15.80
2022-11-29T01:56:56.328Z,17.05
2022-11-29T01:59:23.727Z,16.25
2022-11-29T02:01:50.881Z,14.45
2022-11-29T02:04:18.012Z,15.40
2022-11-29T02:06:44.474Z,13.98
2022-11-29T02:09:21.754Z,13.13
2022-11-29T02:11:48.154Z,13.35
2022-11-29T02:14:29.762Z,15.30
2022-11-29T02:17:15.093Z,12.25
2022-11-29T02:19:53.916Z,15.23
2022-11-29T02:22:32.993Z,12.52
2022-11-29T02:25:10.948Z,13.50
2022-11-29T02:28:00.693Z,11.45
2022-11-29T02:30:29.961Z,13.07
2022-11-29T02:33:05.631Z,12.55
2022-11-29T02:35:47.271Z,11.68
2022-11-29T02:38:32.572Z,10.98
2022-11-29T02:41:13.938Z,12.13
2022-11-29T02:43:57.877Z,11.35
2022-11-29T02:46:27.288Z,13.18
2022-11-29T02:48:53.713Z,12.32
2022-11-29T02:51:39.137Z,13.63
2022-11-29T02:54:08.696Z,11.90
2022-11-29T02:56:35.242Z,13.50
2022-11-29T02:59:06.092Z,12.90
2022-11-29T03:01:48.581Z,13.30
2022-11-29T03:04:25.971Z,11.63
2022-11-29T03:07:02.244Z,12.18
2022-11-29T03:09:48.670Z,12.68
2022-11-29T03:12:20.914Z,13.27
2022-11-29T03:14:55.841Z,12.52
2022-11-29T03:17:35.183Z,12.35
2022-11-29T03:20:01.803Z,13.32
2022-11-29T03:22:28.210Z,11.95
2022-11-29T03:24:56.164Z,10.68
2022-11-29T03:27:36.934Z,12.77
2022-11-29T03:30:05.957Z,13.10
2022-11-29T03:32:32.309Z,12.45
2022-11-29T03:35:28.350Z,12.27
2022-11-29T03:37:55.272Z,13.30
2022-11-29T03:40:26.132Z,13.60
2022-11-29T03:43:01.750Z,12.10
2022-11-29T03:45:44.058Z,15.90
2022-11-29T03:48:14.689Z,13.40
2022-11-29T03:50:44.151Z,13.60
2022-11-29T03:53:19.979Z,16.33
2022-11-29T03:55:48.917Z,11.52
2022-11-29T03:58:21.128Z,12.48
2022-11-29T04:00:47.459Z,11.70
2022-11-29T04:03:38.624Z,12.38
2022-11-29T04:06:18.883Z,12.95
2022-11-29T04:09:07.821Z,11.55
2022-11-29T04:11:59.759Z,11.30
2022-11-29T04:14:32.206Z,12.27
2022-11-29T04:17:13.941Z,12.48
2022-11-29T04:19:46.321Z,11.35
2022-11-29T04:22:31.614Z,13.45
2022-11-29T04:25:16.276Z,12.23
2022-11-29T04:28:01.375Z,11.73
2022-11-29T04:30:30.904Z,11.95
2022-11-29T04:33:03.399Z,12.70
2022-11-29T04:35:38.789Z,12.70
2022-11-29T04:38:05.329Z,12.48
2022-11-29T04:40:40.888Z,11.90
2022-11-29T04:43:25.455Z,14.93
2022-11-29T04:46:07.158Z,12.77
2022-11-29T04:48:40.544Z,13.68
2022-11-29T04:51:25.796Z,12.93
2022-11-29T04:54:09.138Z,11.35
2022-11-29T04:56:44.630Z,13.82
2022-11-29T04:59:29.869Z,13.98
2022-11-29T05:02:14.637Z,13.15
2022-11-29T05:04:40.987Z,12.50
2022-11-29T05:07:11.652Z,13.45
2022-11-29T05:09:46.835Z,12.40
2022-11-29T05:12:32.227Z,12.75
2022-11-29T05:15:10.792Z,12.73
2022-11-29T05:17:40.240Z,12.20
2022-11-29T05:20:23.027Z,11.77
2022-11-29T05:22:49.379Z,13.50
2022-11-29T05:25:34.431Z,11.77
2022-11-29T05:28:16.499Z,12.18
2022-11-29T05:30:45.969Z,13.27
2022-11-29T05:33:28.948Z,14.77
2022-11-29T05:36:15.597Z,16.00
2022-11-29T05:38:53.291Z,16.20
2022-11-29T05:41:48.889Z,17.35
2022-11-29T05:44:33.820Z,13.40
2022-11-29T05:47:01.577Z,14.98
2022-11-29T05:49:27.921Z,14.10
2022-11-29T05:52:17.537Z,15.23
2022-11-29T05:54:48.548Z,15.23
2022-11-29T05:57:14.923Z,13.30
2022-11-29T05:59:42.131Z,13.60
2022-11-29T06:02:20.759Z,12.70
2022-11-29T06:05:03.932Z,13.05
2022-11-29T06:07:38.771Z,11.73
2022-11-29T06:10:06.733Z,13.20
2022-11-29T06:12:35.818Z,11.27
2022-11-29T06:15:13.001Z,15.98
2022-11-29T06:18:01.155Z,17.88
2022-11-29T06:20:38.775Z,14.07
2022-11-29T06:23:20.273Z,14.63
2022-11-29T06:25:47.279Z,16.02
2022-11-29T06:28:25.888Z,13.98
2022-11-29T06:30:55.259Z,14.88
2022-11-29T06:33:37.934Z,16.63
2022-11-29T06:36:11.356Z,14.80
2022-11-29T06:38:37.869Z,14.20
2022-11-29T06:41:04.504Z,15.20
2022-11-29T06:43:31.516Z,12.50
2022-11-29T06:46:05.768Z,15.50
2022-11-29T06:48:38.735Z,15.27
2022-11-29T06:51:20.069Z,14.15
2022-11-29T06:53:58.644Z,13.30
2022-11-29T06:56:43.310Z,15.48
2022-11-29T06:59:12.815Z,14.82
2022-11-29T07:01:42.026Z,13.60
2022-11-29T07:04:14.819Z,12.27
2022-11-29T07:06:41.240Z,13.07
2022-11-29T07:09:28.562Z,14.95
2022-11-29T07:11:55.136Z,12.45
2022-11-29T07:14:21.680Z,14.60
2022-11-29T07:17:09.063Z,15.65
2022-11-29T07:19:38.191Z,18.17
2022-11-29T07:22:04.588Z,14.52
2022-11-29T07:24:40.111Z,15.00
2022-11-29T07:27:12.586Z,15.40
2022-11-29T07:29:47.405Z,19.17
2022-11-29T07:32:13.735Z,17.05
2022-11-29T07:34:43.072Z,16.33
2022-11-29T07:37:14.890Z,14.07
2022-11-29T07:39:44.974Z,15.23
2022-11-29T07:42:26.430Z,17.38
2022-11-29T07:44:52.896Z,12.98
2022-11-29T07:47:19.313Z,13.90
2022-11-29T07:49:45.671Z,14.40
2022-11-29T07:52:13.121Z,16.05
2022-11-29T07:54:40.021Z,15.00
2022-11-29T07:57:06.444Z,17.23
2022-11-29T07:59:32.892Z,19.60
2022-11-29T08:01:59.401Z,15.07
2022-11-29T08:04:25.824Z,21.55
2022-11-29T08:07:00.528Z,18.02
2022-11-29T08:09:26.888Z,15.18
2022-11-29T08:11:53.313Z,12.77
2022-11-29T08:14:19.746Z,14.90
2022-11-29T08:16:46.268Z,15.80
2022-11-29T08:19:12.678Z,17.70
2022-11-29T08:21:39.071Z,17.38
2022-11-29T08:24:05.585Z,13.57
2022-11-29T08:26:32.144Z,13.88
2022-11-29T08:28:58.600Z,14.73
2022-11-29T08:31:25.107Z,15.30
2022-11-29T08:33:51.568Z,16.60
2022-11-29T08:36:19.390Z,16.83
2022-11-29T08:38:46.187Z,13.15
2022-11-29T08:41:13.952Z,13.43
2022-11-29T08:43:40.860Z,13.20
2022-11-29T08:46:07.885Z,14.50
2022-11-29T08:48:35.593Z,15.10
2022-11-29T08:51:02.000Z,14.63
2022-11-29T08:53:44.499Z,15.27
2022-11-29T08:56:41.867Z,15.73
2022-11-29T08:58:58.606Z,14.60
2022-11-29T09:01:25.199Z,16.13
2022-11-29T09:04:02.739Z,13.48
2022-11-29T09:06:31.001Z,14.35
2022-11-29T09:08:57.948Z,20.75
2022-11-29T09:11:25.472Z,12.55
2022-11-29T09:13:53.478Z,12.82
2022-11-29T09:16:21.386Z,12.93
2022-11-29T09:18:52.101Z,12.20
2022-11-29T09:21:18.901Z,13.77
2022-11-29T09:23:45.672Z,13.27
2022-11-29T09:26:16.274Z,15.70
2022-11-29T09:28:42.662Z,15.50
2022-11-29T09:31:10.531Z,13.75
2022-11-29T09:33:36.981Z,15.55
2022-11-29T09:36:03.633Z,18.45
2022-11-29T09:38:30.059Z,14.60
2022-11-29T09:40:57.395Z,13.13
2022-11-29T09:43:27.707Z,11.95
2022-11-29T09:45:59.436Z,16.35
2022-11-29T09:48:27.392Z,18.20
2022-11-29T09:50:56.774Z,15.80
2022-11-29T09:53:35.874Z,13.93
2022-11-29T09:56:05.677Z,11.30
2022-11-29T09:58:36.999Z,14.95
2022-11-29T10:01:06.468Z,15.52
2022-11-29T10:03:36.271Z,15.68
2022-11-29T10:06:07.170Z,17.23
2022-11-29T10:08:36.204Z,12.93
2022-11-29T10:11:22.914Z,17.25
2022-11-29T10:13:51.967Z,16.02
2022-11-29T10:16:23.622Z,17.33
2022-11-29T10:18:54.516Z,17.73
2022-11-29T10:21:22.725Z,13.35
2022-11-29T10:23:52.141Z,14.75
2022-11-29T10:26:20.638Z,13.88
2022-11-29T10:28:48.647Z,14.90
2022-11-29T10:31:22.581Z,15.23
2022-11-29T10:36:16.774Z,14.07
2022-11-29T10:38:44.120Z,12.20
2022-11-29T10:41:13.680Z,15.68
2022-11-29T10:43:40.260Z,15.57
2022-11-29T10:46:12.419Z,16.00
2022-11-29T10:48:38.837Z,16.23
2022-11-29T10:51:12.249Z,15.77
2022-11-29T10:53:38.703Z,17.02
2022-11-29T10:56:24.079Z,12.25
2022-11-29T10:59:05.173Z,18.00
2022-11-29T11:01:33.522Z,17.10
2022-11-29T11:04:00.628Z,11.65
2022-11-29T11:06:28.069Z,17.17
2022-11-29T11:08:55.574Z,17.92
2022-11-29T11:11:26.985Z,17.33
2022-11-29T11:14:00.672Z,16.15
2022-11-29T11:16:27.188Z,19.95
2022-11-29T11:18:53.612Z,24.38
2022-11-29T11:21:21.156Z,18.25
2022-11-29T11:23:53.779Z,19.55
2022-11-29T11:26:20.593Z,17.52
2022-11-29T11:28:46.948Z,19.20
2022-11-29T11:31:13.606Z,17.33
2022-11-29T11:33:40.005Z,13.45
2022-11-29T11:36:06.567Z,15.63
2022-11-29T11:38:34.029Z,17.63
2022-11-29T11:41:20.715Z,16.15
2022-11-29T11:43:58.292Z,15.52
2022-11-29T11:46:44.962Z,15.40
2022-11-29T11:49:12.877Z,15.90
2022-11-29T11:51:41.078Z,18.15
2022-11-29T11:54:13.556Z,18.73
2022-11-29T11:56:39.981Z,19.10
2022-11-29T11:59:06.464Z,16.45
2022-11-29T12:01:38.912Z,16.67
2022-11-29T12:04:14.643Z,15.90
2022-11-29T12:06:47.811Z,20.63
2022-11-29T12:09:35.748Z,18.20
2022-11-29T12:12:20.941Z,22.50
2022-11-29T12:14:56.158Z,15.10
2022-11-29T12:17:28.741Z,19.45
2022-11-29T12:19:59.988Z,23.48
2022-11-29T12:22:30.704Z,16.10
2022-11-29T12:24:59.910Z,22.20
2022-11-29T12:27:26.258Z,18.67
2022-11-29T12:29:52.665Z,14.60
2022-11-29T12:32:31.212Z,18.92
2022-11-29T12:35:18.971Z,17.77
2022-11-29T12:38:05.954Z,20.35
2022-11-29T12:40:43.313Z,19.35
2022-11-29T12:43:18.730Z,14.32
2022-11-29T12:45:48.855Z,17.58
2022-11-29T12:48:25.920Z,16.45
2022-11-29T12:50:58.424Z,22.75
2022-11-29T12:53:30.307Z,19.92
2022-11-29T12:55:59.738Z,20.00
2022-11-29T12:58:31.434Z,18.85
2022-11-29T13:01:06.677Z,23.00
2022-11-29T13:03:36.034Z,18.05
2022-11-29T13:06:02.393Z,19.02
2022-11-29T13:08:41.668Z,15.75
2022-11-29T13:11:19.266Z,20.42
2022-11-29T13:14:13.832Z,20.15
2022-11-29T13:16:54.289Z,22.13
2022-11-29T13:19:20.674Z,19.45
2022-11-29T13:21:58.697Z,19.83
2022-11-29T13:24:28.205Z,22.02
2022-11-29T13:26:55.187Z,22.00
2022-11-29T13:29:21.843Z,23.55
2022-11-29T13:31:48.802Z,22.00
2022-11-29T13:34:41.248Z,18.52
2022-11-29T13:37:15.255Z,22.90
2022-11-29T13:42:28.575Z,20.90
2022-11-29T13:45:13.201Z,21.30
2022-11-29T13:47:49.731Z,20.02
2022-11-29T13:50:36.402Z,22.77
2022-11-29T13:53:11.647Z,26.25
2022-11-29T13:55:43.665Z,22.83
2022-11-29T13:58:17.718Z,25.35
2022-11-29T14:00:44.549Z,23.50
2022-11-29T14:03:23.011Z,21.52
2022-11-29T14:05:54.246Z,28.73
2022-11-29T14:08:23.442Z,22.05
2022-11-29T14:10:50.590Z,20.90
2022-11-29T14:13:17.129Z,23.52
2022-11-29T14:15:43.642Z,33.67
2022-11-29T14:18:29.982Z,23.20
2022-11-29T14:20:57.156Z,21.42
2022-11-29T14:23:32.307Z,22.95
2022-11-29T14:25:58.658Z,22.75
2022-11-29T14:28:40.560Z,20.02
2022-11-29T14:31:07.427Z,17.48
2022-11-29T14:33:52.764Z,20.40
2022-11-29T14:36:28.196Z,17.80
2022-11-29T14:38:57.606Z,20.10
2022-11-29T14:41:42.434Z,19.27
2022-11-29T14:44:18.067Z,21.95
2022-11-29T14:46:45.362Z,16.60
2022-11-29T14:49:21.298Z,22.08
2022-11-29T14:52:06.460Z,23.02
2022-11-29T14:54:33.673Z,20.20
2022-11-29T14:57:19.959Z,18.75
2022-11-29T14:59:52.802Z,21.00
2022-11-29T15:02:34.623Z,27.85
2022-11-29T15:05:13.190Z,21.40
2022-11-29T15:07:43.390Z,20.77
2022-11-29T15:10:16.084Z,19.55
2022-11-29T15:12:42.539Z,18.40
2022-11-29T15:15:32.649Z,22.52
2022-11-29T15:18:17.822Z,19.23
2022-11-29T15:21:04.437Z,21.80
2022-11-29T15:23:39.265Z,21.10
2022-11-29T15:26:05.608Z,19.95
2022-11-29T15:28:31.968Z,20.50
2022-11-29T15:31:05.624Z,22.75
2022-11-29T15:33:33.046Z,24.60
2022-11-29T15:36:06.847Z,20.45
2022-11-29T15:38:52.035Z,19.08
2022-11-29T15:41:38.642Z,20.75
2022-11-29T15:44:06.320Z,21.27
2022-11-29T15:46:34.249Z,21.92
2022-11-29T15:49:22.812Z,18.00
2022-11-29T15:51:51.499Z,24.00
2022-11-29T15:54:23.932Z,24.42
2022-11-29T15:56:53.569Z,17.83
2022-11-29T15:59:22.695Z,18.48
2022-11-29T16:01:51.239Z,21.42
2022-11-29T16:04:19.177Z,27.58
2022-11-29T16:06:46.156Z,17.40
2022-11-29T16:09:14.176Z,23.95
2022-11-29T16:11:40.882Z,64.15
2022-11-29T16:14:29.132Z,42.22
2022-11-29T16:16:57.675Z,20.55
2022-11-29T16:19:29.762Z,22.27
2022-11-29T16:22:00.587Z,22.55
2022-11-29T16:24:27.023Z,26.33
2022-11-29T16:26:54.211Z,21.17
2022-11-29T16:29:26.800Z,28.00
2022-11-29T16:31:53.488Z,24.33
2022-11-29T16:34:23.027Z,21.17
2022-11-29T16:37:19.427Z,22.30
2022-11-29T16:39:47.836Z,23.40
2022-11-29T16:42:14.688Z,24.30
2022-11-29T16:44:41.347Z,25.48
2022-11-29T16:47:12.169Z,31.33
2022-11-29T16:49:38.579Z,38.05
2022-11-29T16:52:22.071Z,38.17
2022-11-29T16:54:48.794Z,23.75
2022-11-29T16:57:15.189Z,25.48
2022-11-29T16:59:41.622Z,28.85
2022-11-29T17:02:10.587Z,23.40
2022-11-29T17:04:37.050Z,27.95
2022-11-29T17:07:05.700Z,25.38
2022-11-29T17:09:33.064Z,24.13
2022-11-29T17:12:00.102Z,27.02
2022-11-29T17:14:26.733Z,26.40
2022-11-29T17:16:53.223Z,26.42
2022-11-29T17:19:20.620Z,27.45
2022-11-29T17:21:47.533Z,27.83
2022-11-29T17:24:15.710Z,27.10
2022-11-29T17:26:42.900Z,25.83
2022-11-29T17:29:10.208Z,28.63
2022-11-29T17:31:36.775Z,29.05
2022-11-29T17:34:03.773Z,29.88
2022-11-29T17:36:30.658Z,23.35
2022-11-29T17:38:58.509Z,25.88
2022-11-29T17:41:25.936Z,29.23
2022-11-29T17:43:53.259Z,63.13
2022-11-29T17:46:23.660Z,32.75
2022-11-29T17:48:50.402Z,32.50
2022-11-29T17:51:50.144Z,29.63
2022-11-29T17:54:04.541Z,27.48
2022-11-29T17:56:31.111Z,30.35
2022-11-29T17:58:58.598Z,32.70
2022-11-29T18:01:26.140Z,33.03
2022-11-29T18:03:53.825Z,27.15
2022-11-29T18:06:21.201Z,32.03
2022-11-29T18:08:49.053Z,27.27
2022-11-29T18:11:26.308Z,30.80
2022-11-29T18:13:53.489Z,29.67
2022-11-29T18:16:20.843Z,27.52
2022-11-29T18:18:47.426Z,31.13
2022-11-29T18:21:14.099Z,27.10
2022-11-29T18:23:41.842Z,30.67
2022-11-29T18:26:10.583Z,33.15
2022-11-29T18:28:37.863Z,34.53
2022-11-29T18:31:14.786Z,29.55
2022-11-29T18:33:41.997Z,31.42
2022-11-29T18:36:10.891Z,31.67
2022-11-29T18:38:38.094Z,28.38
2022-11-29T18:41:08.591Z,26.80
2022-11-29T18:43:35.365Z,27.85
2022-11-29T18:46:07.936Z,27.08
2022-11-29T18:48:34.344Z,24.98
2022-11-29T18:51:01.421Z,28.30
2022-11-29T18:53:27.802Z,25.95
2022-11-29T18:56:01.439Z,30.67
2022-11-29T18:58:27.817Z,26.70
2022-11-29T19:00:54.179Z,25.75
2022-11-29T19:03:20.567Z,29.08
2022-11-29T19:05:53.960Z,28.20
2022-11-29T19:08:20.325Z,32.78
2022-11-29T19:10:46.713Z,30.08
2022-11-29T19:13:13.086Z,29.33
2022-11-29T19:15:39.711Z,29.25
2022-11-29T19:18:06.123Z,30.65
2022-11-29T19:20:34.352Z,27.98
2022-11-29T19:23:01.020Z,32.15
2022-11-29T19:25:27.445Z,30.90
2022-11-29T19:27:53.821Z,30.70
2022-11-29T19:30:20.237Z,31.35
2022-11-29T19:32:46.601Z,28.42
2022-11-29T19:35:13.035Z,27.67
2022-11-29T19:37:39.487Z,32.35
2022-11-29T19:40:06.264Z,35.58
2022-11-29T19:42:32.667Z,31.70
2022-11-29T19:45:16.370Z,34.58
2022-11-29T19:47:43.720Z,32.80
2022-11-29T19:50:10.115Z,32.83
2022-11-29T19:52:36.510Z,36.03
2022-11-29T19:55:02.935Z,32.80
2022-11-29T19:57:29.288Z,33.10
2022-11-29T19:59:55.713Z,34.45
2022-11-29T20:02:22.172Z,30.90
2022-11-29T20:04:49.686Z,30.67
2022-11-29T20:07:16.170Z,32.13
2022-11-29T20:09:42.659Z,32.65
2022-11-29T20:12:09.056Z,28.13
2022-11-29T20:14:35.509Z,32.42
2022-11-29T20:17:02.026Z,35.25
2022-11-29T20:19:28.384Z,39.22
2022-11-29T20:21:54.884Z,31.17
2022-11-29T20:24:21.283Z,33.55
2022-11-29T20:26:48.177Z,34.50
2022-11-29T20:29:15.219Z,38.45
2022-11-29T20:31:49.141Z,35.72
2022-11-29T20:34:16.864Z,32.15
2022-11-29T20:37:02.207Z,35.42
2022-11-29T20:39:37.483Z,34.33
2022-11-29T20:42:16.275Z,35.70
2022-11-29T20:44:46.945Z,34.95
2022-11-29T20:47:17.703Z,33.03
2022-11-29T20:49:44.880Z,33.30
2022-11-29T20:52:15.988Z,31.55
2022-11-29T20:54:42.401Z,33.10
2022-11-29T20:57:08.851Z,28.63
2022-11-29T20:59:35.232Z,31.30
2022-11-29T21:02:02.600Z,30.80
2022-11-29T21:04:29.053Z,30.13
2022-11-29T21:06:55.405Z,36.30
2022-11-29T21:09:21.771Z,31.10
2022-11-29T21:11:48.267Z,31.10
2022-11-29T21:14:14.811Z,39.72
2022-11-29T21:16:41.590Z,34.28
2022-11-29T21:19:09.945Z,33.47
2022-11-29T21:21:50.954Z,37.08
2022-11-29T21:24:20.211Z,29.33
2022-11-29T21:26:50.071Z,28.38
2022-11-29T21:29:18.244Z,40.75
2022-11-29T21:31:45.403Z,32.88
2022-11-29T21:34:11.973Z,30.55
2022-11-29T21:36:38.620Z,35.35
2022-11-29T21:39:06.415Z,28.55
2022-11-29T21:41:32.960Z,27.88
2022-11-29T21:44:06.550Z,29.05
2022-11-29T21:46:34.455Z,31.63
2022-11-29T21:49:00.858Z,37.92
2022-11-29T21:51:27.270Z,33.33
2022-11-29T21:53:53.725Z,43.95
2022-11-29T21:56:20.116Z,38.00
2022-11-29T21:58:46.571Z,35.63
2022-11-29T22:01:17.190Z,37.15
2022-11-29T22:03:43.843Z,34.10
2022-11-29T22:06:11.680Z,35.17
2022-11-29T22:08:39.036Z,34.28
2022-11-29T22:11:06.709Z,30.80
2022-11-29T22:13:33.488Z,33.08
2022-11-29T22:16:06.887Z,28.85
2022-11-29T22:18:33.320Z,29.63
2022-11-29T22:21:04.053Z,31.15
2022-11-29T22:23:30.756Z,30.73
2022-11-29T22:26:01.485Z,36.97
2022-11-29T22:28:27.843Z,34.33
2022-11-29T22:31:00.697Z,38.85
2022-11-29T22:33:29.364Z,31.63
2022-11-29T22:35:55.764Z,33.58
2022-11-29T22:38:22.146Z,31.23
2022-11-29T22:40:48.546Z,31.15
2022-11-29T22:43:16.035Z,34.53
2022-11-29T22:45:42.384Z,33.33
2022-11-29T22:48:08.799Z,31.50
2022-11-29T22:50:35.171Z,34.03
2022-11-29T22:53:01.502Z,37.53
2022-11-29T22:55:27.900Z,33.55
2022-11-29T22:57:54.267Z,31.58
2022-11-29T23:00:20.773Z,29.88
2022-11-29T23:02:47.135Z,32.20
2022-11-29T23:05:13.541Z,32.47
2022-11-29T23:07:40.265Z,33.70
2022-11-29T23:10:07.037Z,28.65
2022-11-29T23:12:33.412Z,27.33
2022-11-29T23:15:01.921Z,27.45
2022-11-29T23:17:28.306Z,27.55
2022-11-29T23:19:54.778Z,25.52
2022-11-29T23:22:21.239Z,29.88
2022-11-29T23:24:47.785Z,28.73
2022-11-29T23:27:14.700Z,31.00
2022-11-29T23:29:41.028Z,32.05
2022-11-29T23:32:07.522Z,30.48
2022-11-29T23:34:34.004Z,33.97
2022-11-29T23:37:00.418Z,27.17
2022-11-29T23:39:26.825Z,26.80
2022-11-29T23:41:53.185Z,26.08
2022-11-29T23:44:19.574Z,28.63
2022-11-29T23:46:46.109Z,26.40
2022-11-29T23:49:12.464Z,27.05
2022-11-29T23:51:38.864Z,34.35
2022-11-29T23:54:05.799Z,28.33
2022-11-29T23:56:35.244Z,31.17
2022-11-29T23:59:01.887Z,32.70
